createdAt,value
2024-02-13T00:00:47.505Z,71.60
2024-02-13T00:02:50.950Z,71.60
2024-02-13T00:04:52.847Z,71.50
2024-02-13T00:06:58.830Z,71.20
2024-02-13T00:09:00.721Z,71.20
2024-02-13T00:11:07.930Z,71.20
2024-02-13T00:13:09.870Z,71.20
2024-02-13T00:15:15.635Z,71.30
2024-02-13T00:17:18.467Z,71.40
2024-02-13T00:19:20.505Z,71.50
2024-02-13T00:21:22.330Z,71.50
2024-02-13T00:23:24.109Z,72.30
2024-02-13T00:25:27.105Z,71.60
2024-02-13T00:27:33.913Z,71.60
2024-02-13T00:29:35.870Z,71.70
2024-02-13T00:31:37.943Z,71.50
2024-02-13T00:33:39.846Z,71.50
2024-02-13T00:35:41.706Z,71.50
2024-02-13T00:37:43.692Z,71.60
2024-02-13T00:39:45.547Z,71.60
2024-02-13T00:41:47.371Z,71.50
2024-02-13T00:43:50.803Z,71.50
2024-02-13T00:45:52.631Z,71.60
2024-02-13T00:47:54.471Z,71.60
2024-02-13T00:49:56.668Z,71.60
2024-02-13T00:51:58.448Z,71.40
2024-02-13T00:54:00.256Z,71.40
2024-02-13T00:56:02.936Z,71.30
2024-02-13T00:58:04.795Z,71.20
2024-02-13T01:00:10.647Z,71.20
2024-02-13T01:02:12.835Z,71.20
2024-02-13T01:04:14.655Z,71.20
2024-02-13T01:06:16.702Z,71.30
2024-02-13T01:08:24.657Z,71.30
2024-02-13T01:10:26.745Z,71.20
2024-02-13T01:12:28.630Z,71.30
2024-02-13T01:14:31.092Z,71.40
2024-02-13T01:16:32.824Z,71.20
2024-02-13T01:18:36.448Z,71.10
2024-02-13T01:20:38.498Z,71.20
2024-02-13T01:22:40.332Z,71.20
2024-02-13T01:24:42.095Z,71.10
2024-02-13T01:26:45.074Z,71.20
2024-02-13T01:28:47.276Z,71.30
2024-02-13T01:30:49.083Z,71.40
2024-02-13T01:32:51.213Z,71.40
2024-02-13T01:34:53.028Z,71.30
2024-02-13T01:36:58.447Z,71.40
2024-02-13T01:39:04.111Z,71.40
2024-02-13T01:41:10.312Z,71.40
2024-02-13T01:43:12.088Z,71.40
2024-02-13T01:45:15.093Z,71.50
2024-02-13T01:47:16.928Z,71.50
2024-02-13T01:49:18.770Z,71.50
2024-02-13T01:51:20.532Z,71.50
2024-02-13T01:53:22.443Z,71.40
2024-02-13T01:55:27.536Z,71.40
2024-02-13T01:57:32.253Z,71.50
2024-02-13T01:59:39.930Z,71.50
2024-02-13T02:01:42.283Z,71.60
2024-02-13T02:03:47.032Z,71.60
2024-02-13T02:05:48.998Z,71.60
2024-02-13T02:07:50.874Z,71.80
2024-02-13T02:09:53.101Z,71.40
2024-02-13T02:11:55.193Z,71.50
2024-02-13T02:13:57.265Z,71.60
2024-02-13T02:15:59.096Z,71.60
2024-02-13T02:18:01.076Z,71.70
2024-02-13T02:20:03.326Z,71.60
2024-02-13T02:22:08.003Z,71.60
2024-02-13T02:24:09.878Z,71.60
2024-02-13T02:26:12.217Z,71.60
2024-02-13T02:28:16.353Z,71.60
2024-02-13T02:30:18.960Z,71.60
2024-02-13T02:32:21.537Z,72.40
2024-02-13T02:34:23.292Z,71.50
2024-02-13T02:36:25.012Z,71.60
2024-02-13T02:38:26.860Z,71.60
2024-02-13T02:40:29.170Z,71.80
2024-02-13T02:42:30.898Z,71.80
2024-02-13T02:44:32.627Z,71.80
2024-02-13T02:46:35.595Z,71.70
2024-02-13T02:48:39.003Z,71.70
2024-02-13T02:50:40.854Z,71.70
2024-02-13T02:52:44.141Z,71.80
2024-02-13T02:54:46.073Z,71.80
2024-02-13T02:56:47.956Z,71.80
2024-02-13T02:58:50.957Z,71.90
2024-02-13T03:00:53.353Z,71.90
2024-02-13T03:02:56.980Z,71.90
2024-02-13T03:04:58.785Z,71.90
2024-02-13T03:07:01.037Z,72.00
2024-02-13T03:09:03.697Z,71.90
2024-02-13T03:11:05.488Z,72.10
2024-02-13T03:13:07.209Z,72.10
2024-02-13T03:15:09.202Z,72.10
2024-02-13T03:17:12.991Z,72.20
2024-02-13T03:19:15.005Z,72.20
2024-02-13T03:21:16.772Z,72.20
2024-02-13T03:23:18.547Z,72.10
2024-02-13T03:25:20.333Z,72.10
2024-02-13T03:27:22.058Z,72.00
2024-02-13T03:29:23.869Z,72.10
2024-02-13T03:31:25.629Z,72.10
2024-02-13T03:33:27.694Z,72.20
2024-02-13T03:35:31.416Z,72.20
2024-02-13T03:37:33.302Z,72.10
2024-02-13T03:39:35.035Z,72.00
2024-02-13T03:41:49.086Z,72.00
2024-02-13T03:43:51.006Z,72.00
2024-02-13T03:45:54.387Z,72.00
2024-02-13T03:47:56.297Z,72.00
2024-02-13T03:49:58.355Z,72.00
2024-02-13T03:52:00.565Z,72.10
2024-02-13T03:54:02.785Z,72.20
2024-02-13T03:56:06.554Z,72.20
2024-02-13T03:58:08.314Z,72.20
2024-02-13T04:00:12.314Z,72.20
2024-02-13T04:02:14.977Z,72.20
2024-02-13T04:04:16.706Z,72.20
2024-02-13T04:06:18.612Z,72.10
2024-02-13T04:08:20.431Z,72.00
2024-02-13T04:10:22.763Z,72.00
2024-02-13T04:12:24.480Z,72.00
2024-02-13T04:14:28.341Z,72.10
2024-02-13T04:16:31.663Z,72.10
2024-02-13T04:18:34.362Z,72.10
2024-02-13T04:20:39.011Z,72.10
2024-02-13T04:22:40.909Z,72.10
2024-02-13T04:24:42.666Z,72.20
2024-02-13T04:26:44.426Z,73.10
2024-02-13T04:28:46.269Z,72.20
2024-02-13T04:30:48.440Z,72.30
2024-02-13T04:32:50.454Z,72.30
2024-02-13T04:34:52.355Z,72.40
2024-02-13T04:36:54.309Z,72.70
2024-02-13T04:38:56.605Z,72.70
2024-02-13T04:40:58.636Z,72.80
2024-02-13T04:43:01.902Z,72.80
2024-02-13T04:45:04.226Z,72.80
2024-02-13T04:47:06.115Z,72.90
2024-02-13T04:49:08.119Z,73.00
2024-02-13T04:51:10.207Z,73.90
2024-02-13T04:53:12.125Z,73.00
2024-02-13T04:55:13.952Z,72.80
2024-02-13T04:57:15.658Z,72.80
2024-02-13T04:59:19.420Z,73.60
2024-02-13T05:01:21.207Z,72.80
2024-02-13T05:03:42.915Z,72.80
2024-02-13T05:06:03.668Z,72.70
2024-02-13T05:08:07.761Z,72.50
2024-02-13T05:10:10.753Z,72.50
2024-02-13T05:12:12.507Z,72.40
2024-02-13T05:14:14.369Z,72.50
2024-02-13T05:16:17.389Z,72.50
2024-02-13T05:18:19.540Z,72.50
2024-02-13T05:20:21.435Z,72.50
2024-02-13T05:22:23.207Z,72.50
2024-02-13T05:24:24.990Z,73.40
2024-02-13T05:26:26.743Z,72.50
2024-02-13T05:28:28.671Z,72.90
2024-02-13T05:30:30.421Z,73.00
2024-02-13T05:32:32.416Z,73.00
2024-02-13T05:34:34.828Z,73.10
2024-02-13T05:36:36.545Z,73.10
2024-02-13T05:38:41.731Z,73.30
2024-02-13T05:40:44.383Z,73.30
2024-02-13T05:42:46.313Z,73.20
2024-02-13T05:44:48.322Z,73.20
2024-02-13T05:46:50.979Z,73.10
2024-02-13T05:48:55.558Z,73.10
2024-02-13T05:50:57.416Z,73.20
2024-02-13T05:52:59.393Z,73.20
2024-02-13T05:55:01.139Z,73.30
2024-02-13T05:57:03.052Z,73.40
2024-02-13T05:59:04.782Z,73.40
2024-02-13T06:01:13.933Z,73.40
2024-02-13T06:03:15.831Z,73.40
2024-02-13T06:05:20.505Z,73.40
2024-02-13T06:07:22.292Z,73.50
2024-02-13T06:09:25.871Z,73.40
2024-02-13T06:11:30.346Z,73.60
2024-02-13T06:13:34.998Z,73.40
2024-02-13T06:15:38.162Z,73.30
2024-02-13T06:17:40.769Z,73.30
2024-02-13T06:19:42.782Z,73.40
2024-02-13T06:21:44.663Z,73.50
2024-02-13T06:23:47.459Z,73.60
2024-02-13T06:25:49.379Z,73.60
2024-02-13T06:27:51.501Z,73.70
2024-02-13T06:29:53.316Z,73.70
2024-02-13T06:31:56.365Z,73.60
2024-02-13T06:33:58.999Z,73.70
2024-02-13T06:36:01.083Z,73.80
2024-02-13T06:38:02.965Z,73.70
2024-02-13T06:40:04.983Z,73.80
2024-02-13T06:42:07.010Z,73.70
2024-02-13T06:44:08.737Z,73.60
2024-02-13T06:46:10.669Z,73.50
2024-02-13T06:48:12.681Z,73.50
2024-02-13T06:50:15.062Z,73.40
2024-02-13T06:52:16.899Z,73.20
2024-02-13T06:54:21.229Z,73.20
2024-02-13T06:56:23.116Z,73.20
2024-02-13T06:58:24.903Z,73.20
2024-02-13T07:00:27.276Z,73.20
2024-02-13T07:02:29.190Z,73.20
2024-02-13T07:04:31.052Z,73.20
2024-02-13T07:06:43.506Z,73.20
2024-02-13T07:08:55.221Z,73.30
2024-02-13T07:10:57.110Z,73.50
2024-02-13T07:12:59.822Z,73.60
2024-02-13T07:15:01.905Z,73.50
2024-02-13T07:17:03.896Z,73.40
2024-02-13T07:19:05.821Z,73.30
2024-02-13T07:21:08.752Z,73.30
2024-02-13T07:23:11.234Z,73.40
2024-02-13T07:25:13.156Z,73.40
2024-02-13T07:27:17.206Z,73.40
2024-02-13T07:29:20.195Z,73.50
2024-02-13T07:31:22.239Z,73.50
2024-02-13T07:33:24.277Z,73.60
2024-02-13T07:35:26.818Z,73.70
2024-02-13T07:37:28.731Z,73.70
2024-02-13T07:39:30.467Z,73.70
2024-02-13T07:41:35.819Z,73.80
2024-02-13T07:43:37.765Z,73.80
2024-02-13T07:45:40.117Z,73.80
2024-02-13T07:47:42.815Z,73.60
2024-02-13T07:49:44.807Z,73.50
2024-02-13T07:51:46.967Z,73.40
2024-02-13T07:53:49.005Z,73.40
2024-02-13T07:55:50.819Z,73.40
2024-02-13T07:57:55.156Z,73.40
2024-02-13T07:59:57.459Z,73.50
2024-02-13T08:01:59.343Z,73.60
2024-02-13T08:04:01.543Z,73.60
2024-02-13T08:06:03.575Z,73.50
2024-02-13T08:08:07.222Z,73.60
2024-02-13T08:10:14.648Z,73.50
2024-02-13T08:12:16.870Z,74.30
2024-02-13T08:14:18.956Z,73.50
2024-02-13T08:16:23.400Z,73.50
2024-02-13T08:18:26.054Z,73.50
2024-02-13T08:20:28.639Z,73.50
2024-02-13T08:22:30.786Z,73.50
2024-02-13T08:24:32.821Z,73.50
2024-02-13T08:26:35.191Z,73.40
2024-02-13T08:28:39.182Z,73.30
2024-02-13T08:30:41.054Z,73.30
2024-02-13T08:32:43.830Z,73.10
2024-02-13T08:34:46.176Z,73.10
2024-02-13T08:36:49.768Z,73.00
2024-02-13T08:38:53.028Z,73.10
2024-02-13T08:40:54.928Z,73.10
2024-02-13T08:42:57.811Z,73.00
2024-02-13T08:45:00.677Z,72.90
2024-02-13T08:47:02.509Z,73.10
2024-02-13T08:49:06.256Z,73.10
2024-02-13T08:51:08.535Z,73.10
2024-02-13T08:53:10.848Z,73.10
2024-02-13T08:55:12.728Z,73.10
2024-02-13T08:57:15.422Z,73.00
2024-02-13T08:59:18.016Z,72.90
2024-02-13T09:01:20.723Z,72.90
2024-02-13T09:03:22.635Z,72.80
2024-02-13T09:05:44.211Z,72.80
2024-02-13T09:07:47.522Z,72.80
2024-02-13T09:09:49.342Z,72.80
2024-02-13T09:11:51.266Z,72.80
2024-02-13T09:13:53.152Z,72.90
2024-02-13T09:15:56.485Z,72.80
2024-02-13T09:17:58.535Z,72.90
2024-02-13T09:20:01.188Z,72.80
2024-02-13T09:22:03.073Z,72.70
2024-02-13T09:24:05.820Z,72.70
2024-02-13T09:26:07.709Z,72.60
2024-02-13T09:28:10.572Z,72.50
2024-02-13T09:30:13.439Z,72.60
2024-02-13T09:32:15.652Z,72.60
2024-02-13T09:34:17.776Z,72.60
2024-02-13T09:36:22.346Z,72.70
2024-02-13T09:38:24.394Z,72.50
2024-02-13T09:40:28.150Z,72.40
2024-02-13T09:42:29.990Z,72.50
2024-02-13T09:44:34.070Z,72.60
2024-02-13T09:46:37.631Z,72.50
2024-02-13T09:48:39.847Z,72.50
2024-02-13T09:50:43.813Z,72.50
2024-02-13T09:52:47.582Z,72.40
2024-02-13T09:54:49.491Z,72.60
2024-02-13T09:56:52.326Z,72.50
2024-02-13T09:58:55.564Z,72.30
2024-02-13T10:01:01.002Z,72.40
2024-02-13T10:03:06.270Z,72.00
2024-02-13T10:05:11.752Z,71.50
2024-02-13T10:07:15.663Z,71.50
2024-02-13T10:09:18.297Z,71.70
2024-02-13T10:11:30.176Z,71.60
2024-02-13T10:13:46.910Z,71.90
2024-02-13T10:15:50.099Z,71.50
2024-02-13T10:17:55.556Z,71.50
2024-02-13T10:19:57.617Z,71.30
2024-02-13T10:22:06.817Z,70.90
2024-02-13T10:24:16.802Z,71.10
2024-02-13T10:26:19.485Z,71.20
2024-02-13T10:28:23.497Z,71.80
2024-02-13T10:30:26.804Z,71.60
2024-02-13T10:32:28.740Z,71.00
2024-02-13T10:34:35.923Z,70.80
2024-02-13T10:36:39.198Z,71.20
2024-02-13T10:38:41.877Z,71.40
2024-02-13T10:40:44.785Z,70.80
2024-02-13T10:42:46.657Z,70.90
2024-02-13T10:44:50.583Z,71.20
2024-02-13T10:46:55.096Z,70.90
2024-02-13T10:49:02.531Z,70.80
2024-02-13T10:51:05.040Z,70.80
2024-02-13T10:53:07.271Z,70.20
2024-02-13T10:55:11.739Z,70.00
2024-02-13T10:57:17.683Z,69.80
2024-02-13T10:59:22.688Z,69.80
2024-02-13T11:01:25.546Z,70.30
2024-02-13T11:03:27.410Z,70.10
2024-02-13T11:05:30.037Z,69.80
2024-02-13T11:07:31.961Z,71.00
2024-02-13T11:09:36.250Z,69.90
2024-02-13T11:11:38.221Z,70.10
2024-02-13T11:13:40.503Z,70.10
2024-02-13T11:15:42.375Z,69.50
2024-02-13T11:17:45.068Z,69.90
2024-02-13T11:19:50.415Z,69.50
2024-02-13T11:21:53.126Z,70.00
2024-02-13T11:24:01.775Z,69.40
2024-02-13T11:26:03.789Z,68.80
2024-02-13T11:28:08.335Z,69.20
2024-02-13T11:30:20.726Z,69.30
2024-02-13T11:32:29.842Z,68.80
2024-02-13T11:34:42.542Z,68.70
2024-02-13T11:36:50.069Z,68.50
2024-02-13T11:38:57.782Z,69.00
2024-02-13T11:41:00.562Z,69.30
2024-02-13T11:43:02.604Z,69.50
2024-02-13T11:45:06.851Z,68.00
2024-02-13T11:47:11.344Z,68.70
2024-02-13T11:49:14.551Z,68.90
2024-02-13T11:51:17.556Z,69.30
2024-02-13T11:53:20.474Z,69.10
2024-02-13T11:55:22.662Z,68.10
2024-02-13T11:57:27.315Z,68.50
2024-02-13T11:59:30.492Z,69.90
2024-02-13T12:01:34.627Z,69.30
2024-02-13T12:03:37.020Z,69.30
2024-02-13T12:05:38.998Z,69.40
2024-02-13T12:07:42.853Z,69.40
2024-02-13T12:09:45.632Z,69.50
2024-02-13T12:11:47.729Z,69.60
2024-02-13T12:13:50.199Z,68.10
2024-02-13T12:15:52.883Z,68.50
2024-02-13T12:17:55.600Z,68.20
2024-02-13T12:19:57.517Z,68.30
2024-02-13T12:22:06.159Z,68.20
2024-02-13T12:24:09.831Z,69.00
2024-02-13T12:26:12.145Z,68.60
2024-02-13T12:28:14.600Z,68.70
2024-02-13T12:30:16.686Z,68.30
2024-02-13T12:32:23.400Z,68.20
2024-02-13T12:34:26.963Z,68.00
2024-02-13T12:36:28.948Z,68.40
2024-02-13T12:38:31.810Z,68.10
2024-02-13T12:40:36.107Z,68.20
2024-02-13T12:42:37.911Z,68.00
2024-02-13T12:44:41.595Z,68.10
2024-02-13T12:46:43.735Z,68.10
2024-02-13T12:48:45.633Z,68.10
2024-02-13T12:50:47.705Z,68.10
2024-02-13T12:52:50.531Z,68.40
2024-02-13T12:54:53.364Z,68.20
2024-02-13T12:56:58.042Z,68.10
2024-02-13T12:59:02.399Z,68.20
2024-02-13T13:01:05.183Z,67.70
2024-02-13T13:03:08.181Z,67.70
2024-02-13T13:05:14.159Z,67.10
2024-02-13T13:07:16.058Z,67.30
2024-02-13T13:09:27.038Z,68.00
2024-02-13T13:11:30.641Z,67.30
2024-02-13T13:13:33.636Z,67.20
2024-02-13T13:15:35.626Z,66.60
2024-02-13T13:17:38.402Z,66.30
2024-02-13T13:19:40.570Z,66.40
2024-02-13T13:21:43.005Z,66.60
2024-02-13T13:23:50.093Z,67.20
2024-02-13T13:25:56.112Z,67.70
2024-02-13T13:28:06.421Z,67.60
2024-02-13T13:30:10.049Z,67.40
2024-02-13T13:32:16.196Z,67.50
2024-02-13T13:34:21.961Z,67.30
2024-02-13T13:36:24.697Z,66.20
2024-02-13T13:38:29.841Z,66.30
2024-02-13T13:40:41.130Z,66.70
2024-02-13T13:42:44.500Z,67.70
2024-02-13T13:44:46.472Z,67.30
2024-02-13T13:46:53.179Z,66.40
2024-02-13T13:48:55.373Z,66.60
2024-02-13T13:50:57.606Z,66.70
2024-02-13T13:53:01.824Z,66.80
2024-02-13T13:55:04.095Z,66.50
2024-02-13T13:57:06.119Z,66.90
2024-02-13T13:59:08.846Z,66.90
2024-02-13T14:01:10.906Z,66.40
2024-02-13T14:03:14.723Z,66.30
2024-02-13T14:05:16.631Z,65.40
2024-02-13T14:07:18.546Z,65.40
2024-02-13T14:09:22.220Z,65.80
2024-02-13T14:11:24.197Z,66.40
2024-02-13T14:13:26.210Z,66.20
2024-02-13T14:15:29.907Z,66.80
2024-02-13T14:17:33.361Z,66.00
2024-02-13T14:19:36.799Z,65.90
2024-02-13T14:21:41.258Z,65.50
2024-02-13T14:23:44.074Z,65.70
2024-02-13T14:25:46.016Z,65.10
2024-02-13T14:27:48.093Z,65.80
2024-02-13T14:29:49.916Z,64.40
2024-02-13T14:31:51.782Z,65.20
2024-02-13T14:33:53.833Z,65.60
2024-02-13T14:35:55.858Z,65.50
2024-02-13T14:37:58.454Z,65.20
2024-02-13T14:40:01.303Z,65.10
2024-02-13T14:42:04.272Z,64.40
2024-02-13T14:44:08.560Z,64.80
2024-02-13T14:46:10.352Z,64.00
2024-02-13T14:48:14.713Z,64.50
2024-02-13T14:50:18.691Z,63.60
2024-02-13T14:52:21.378Z,64.40
2024-02-13T14:54:23.188Z,64.90
2024-02-13T14:56:25.855Z,64.10
2024-02-13T14:58:34.713Z,65.40
2024-02-13T15:00:41.340Z,64.80
2024-02-13T15:02:43.351Z,63.50
2024-02-13T15:04:45.816Z,63.30
2024-02-13T15:06:50.616Z,62.70
2024-02-13T15:08:52.889Z,63.20
2024-02-13T15:10:54.830Z,63.40
2024-02-13T15:12:59.069Z,64.10
2024-02-13T15:15:05.508Z,63.80
2024-02-13T15:17:09.312Z,64.50
2024-02-13T15:19:11.460Z,63.00
2024-02-13T15:21:13.580Z,63.50
2024-02-13T15:23:16.359Z,62.50
2024-02-13T15:25:18.924Z,61.80
2024-02-13T15:27:22.532Z,62.00
2024-02-13T15:29:24.844Z,62.50
2024-02-13T15:31:26.773Z,62.50
2024-02-13T15:33:29.209Z,63.60
2024-02-13T15:35:42.687Z,62.70
2024-02-13T15:38:03.697Z,62.00
2024-02-13T15:40:24.570Z,62.00
2024-02-13T15:42:45.653Z,61.60
2024-02-13T15:45:06.249Z,62.50
2024-02-13T15:47:09.002Z,61.70
2024-02-13T15:49:12.913Z,61.80
2024-02-13T15:51:16.248Z,61.50
2024-02-13T15:53:18.641Z,61.70
2024-02-13T15:55:20.703Z,62.20
2024-02-13T15:57:24.322Z,62.00
2024-02-13T15:59:27.335Z,62.10
2024-02-13T16:01:29.907Z,62.10
2024-02-13T16:03:33.214Z,62.40
2024-02-13T16:05:36.794Z,62.90
2024-02-13T16:07:39.157Z,62.00
2024-02-13T16:09:42.777Z,62.40
2024-02-13T16:11:44.660Z,62.30
2024-02-13T16:13:48.795Z,62.00
2024-02-13T16:15:50.732Z,61.70
2024-02-13T16:17:52.751Z,61.00
2024-02-13T16:19:55.978Z,61.50
2024-02-13T16:21:57.864Z,62.40
2024-02-13T16:23:59.823Z,61.80
2024-02-13T16:26:01.759Z,62.10
2024-02-13T16:28:06.765Z,61.60
2024-02-13T16:30:09.394Z,61.20
2024-02-13T16:32:24.766Z,61.70
2024-02-13T16:34:36.968Z,61.50
2024-02-13T16:36:38.959Z,60.70
2024-02-13T16:38:40.850Z,61.10
2024-02-13T16:40:45.404Z,61.00
2024-02-13T16:42:58.605Z,61.20
2024-02-13T16:45:02.553Z,61.70
2024-02-13T16:47:07.732Z,61.90
2024-02-13T16:49:12.964Z,61.90
2024-02-13T16:51:15.054Z,61.50
2024-02-13T16:53:16.859Z,61.60
2024-02-13T16:55:20.160Z,62.10
2024-02-13T16:57:22.647Z,61.90
2024-02-13T16:59:24.521Z,61.80
2024-02-13T17:01:26.376Z,62.10
2024-02-13T17:03:28.363Z,62.10
2024-02-13T17:05:30.263Z,62.40
2024-02-13T17:07:32.255Z,62.70
2024-02-13T17:09:34.145Z,62.50
2024-02-13T17:11:36.964Z,62.40
2024-02-13T17:13:39.154Z,63.60
2024-02-13T17:15:43.166Z,62.60
2024-02-13T17:17:45.971Z,62.80
2024-02-13T17:19:48.121Z,62.90
2024-02-13T17:21:52.803Z,62.80
2024-02-13T17:23:54.655Z,62.80
2024-02-13T17:25:56.619Z,63.10
2024-02-13T17:27:58.462Z,63.20
2024-02-13T17:30:00.464Z,63.20
2024-02-13T17:32:02.427Z,63.00
2024-02-13T17:34:04.428Z,63.20
2024-02-13T17:36:07.115Z,63.30
2024-02-13T17:38:10.166Z,63.20
2024-02-13T17:40:14.215Z,63.50
2024-02-13T17:42:16.077Z,63.70
2024-02-13T17:44:18.024Z,63.10
2024-02-13T17:46:19.918Z,63.30
2024-02-13T17:48:22.059Z,63.30
2024-02-13T17:50:24.014Z,63.20
2024-02-13T17:52:25.801Z,63.60
2024-02-13T17:54:30.615Z,63.60
2024-02-13T17:56:33.253Z,63.60
2024-02-13T17:58:35.703Z,63.40
2024-02-13T18:00:37.768Z,63.60
2024-02-13T18:02:40.658Z,63.40
2024-02-13T18:04:42.815Z,63.50
2024-02-13T18:06:44.929Z,63.60
2024-02-13T18:08:47.020Z,63.30
2024-02-13T18:10:48.969Z,63.60
2024-02-13T18:12:50.807Z,63.40
2024-02-13T18:14:53.210Z,63.20
2024-02-13T18:16:57.787Z,63.40
2024-02-13T18:19:03.595Z,63.30
2024-02-13T18:21:08.806Z,63.70
2024-02-13T18:23:10.760Z,63.50
2024-02-13T18:25:12.752Z,63.60
2024-02-13T18:27:14.851Z,63.70
2024-02-13T18:29:20.448Z,63.70
2024-02-13T18:31:22.747Z,63.70
2024-02-13T18:33:35.726Z,63.70
2024-02-13T18:35:49.184Z,63.70
2024-02-13T18:37:58.234Z,64.00
2024-02-13T18:40:00.356Z,63.80
2024-02-13T18:44:37.639Z,63.70
2024-02-13T18:46:43.426Z,63.90
2024-02-13T18:48:46.418Z,64.00
2024-02-13T18:50:55.621Z,64.80
2024-02-13T18:53:01.377Z,64.10
2024-02-13T18:55:09.623Z,64.20
2024-02-13T18:57:13.518Z,64.30
2024-02-13T18:59:18.140Z,64.40
2024-02-13T19:01:56.784Z,64.50
2024-02-13T19:04:17.618Z,64.50
2024-02-13T19:09:01.507Z,64.50
2024-02-13T19:11:03.688Z,64.70
2024-02-13T19:13:05.893Z,64.80
2024-02-13T19:15:09.360Z,64.70
2024-02-13T19:17:11.351Z,64.60
2024-02-13T19:19:13.409Z,64.50
2024-02-13T19:21:36.593Z,64.50
2024-02-13T19:23:38.691Z,64.50
2024-02-13T19:25:40.699Z,64.60
2024-02-13T19:27:42.725Z,65.60
2024-02-13T19:29:45.626Z,64.90
2024-02-13T19:31:47.537Z,65.00
2024-02-13T19:33:50.359Z,64.90
2024-02-13T19:36:01.225Z,65.00
2024-02-13T19:38:03.903Z,65.10
2024-02-13T19:40:17.953Z,64.90
2024-02-13T19:42:21.223Z,65.10
2024-02-13T19:44:23.584Z,65.00
2024-02-13T19:46:26.737Z,65.10
2024-02-13T19:48:34.910Z,65.20
2024-02-13T19:50:37.968Z,65.40
2024-02-13T19:52:39.984Z,65.30
2024-02-13T19:54:41.983Z,65.40
2024-02-13T19:56:47.230Z,65.50
2024-02-13T19:58:51.130Z,65.50
2024-02-13T20:00:55.969Z,65.50
2024-02-13T20:03:05.876Z,65.40
2024-02-13T20:05:08.103Z,65.50
2024-02-13T20:07:10.419Z,65.50
2024-02-13T20:09:12.668Z,65.50
2024-02-13T20:11:20.206Z,65.40
2024-02-13T20:13:22.272Z,65.50
2024-02-13T20:15:30.195Z,65.70
2024-02-13T20:17:32.408Z,65.70
2024-02-13T20:19:34.562Z,65.60
2024-02-13T20:21:40.469Z,65.60
2024-02-13T20:23:46.923Z,65.70
2024-02-13T20:25:48.962Z,65.70
2024-02-13T20:27:51.839Z,65.60
2024-02-13T20:29:53.774Z,65.60
2024-02-13T20:31:55.666Z,65.70
2024-02-13T20:33:59.201Z,65.70
2024-02-13T20:36:02.004Z,65.80
2024-02-13T20:38:06.946Z,66.00
2024-02-13T20:40:14.685Z,66.20
2024-02-13T20:42:16.617Z,66.20
2024-02-13T20:44:18.643Z,66.30
2024-02-13T20:46:20.604Z,66.30
2024-02-13T20:48:23.067Z,66.40
2024-02-13T20:50:25.760Z,66.40
2024-02-13T20:52:38.224Z,66.50
2024-02-13T20:54:41.333Z,66.50
2024-02-13T20:56:50.072Z,66.50
2024-02-13T20:58:52.299Z,66.60
2024-02-13T21:00:54.326Z,66.40
2024-02-13T21:03:00.218Z,66.40
2024-02-13T21:05:02.207Z,66.40
2024-02-13T21:07:09.220Z,66.50
2024-02-13T21:09:11.214Z,66.70
2024-02-13T21:11:17.847Z,66.70
2024-02-13T21:13:19.933Z,66.70
2024-02-13T21:15:25.055Z,66.60
2024-02-13T21:17:28.549Z,66.80
2024-02-13T21:19:32.827Z,66.80
2024-02-13T21:21:53.221Z,66.70
2024-02-13T21:23:55.438Z,66.70
2024-02-13T21:25:57.656Z,66.70
2024-02-13T21:27:59.865Z,66.80
2024-02-13T21:30:02.158Z,66.80
2024-02-13T21:32:04.351Z,67.00
2024-02-13T21:34:07.385Z,67.00
2024-02-13T21:36:09.822Z,66.80
2024-02-13T21:38:14.513Z,67.00
2024-02-13T21:40:16.733Z,67.00
2024-02-13T21:42:18.698Z,66.80
2024-02-13T21:44:20.858Z,66.90
2024-02-13T21:46:22.990Z,66.80
2024-02-13T21:48:28.275Z,66.70
2024-02-13T21:50:33.179Z,66.80
2024-02-13T21:52:37.454Z,66.80
2024-02-13T21:54:41.389Z,66.80
2024-02-13T21:56:45.255Z,66.80
2024-02-13T21:58:48.348Z,66.80
2024-02-13T22:04:16.505Z,66.70
2024-02-13T22:06:24.939Z,67.60
2024-02-13T22:08:27.158Z,66.60
2024-02-13T22:13:04.493Z,66.80
2024-02-13T22:15:14.861Z,67.00
2024-02-13T22:17:19.546Z,66.80
2024-02-13T22:19:22.444Z,66.80
2024-02-13T22:21:25.484Z,66.80
2024-02-13T22:23:30.784Z,66.90
2024-02-13T22:25:41.760Z,67.00
2024-02-13T22:27:43.965Z,67.00
2024-02-13T22:29:52.287Z,66.80
2024-02-13T22:31:54.239Z,66.90
2024-02-13T22:33:56.416Z,66.80
2024-02-13T22:35:58.630Z,67.00
2024-02-13T22:38:00.655Z,67.00
2024-02-13T22:40:03.144Z,67.10
2024-02-13T22:42:05.211Z,67.10
2024-02-13T22:44:07.447Z,67.10
2024-02-13T22:46:09.386Z,67.00
2024-02-13T22:48:11.339Z,67.00
2024-02-13T22:50:13.325Z,67.00
2024-02-13T22:52:15.168Z,67.50
2024-02-13T22:54:16.982Z,66.70
2024-02-13T22:56:18.867Z,66.80
2024-02-13T22:58:20.758Z,66.80
2024-02-13T23:00:41.309Z,66.80
2024-02-13T23:02:43.237Z,67.00
2024-02-13T23:04:51.743Z,67.00
2024-02-13T23:06:53.907Z,67.00
2024-02-13T23:08:55.845Z,67.00
2024-02-13T23:10:58.045Z,66.90
2024-02-13T23:12:59.788Z,66.70
2024-02-13T23:15:08.275Z,66.90
2024-02-13T23:17:13.545Z,67.00
2024-02-13T23:19:15.502Z,67.10
2024-02-13T23:21:18.012Z,67.10
2024-02-13T23:23:20.002Z,67.20
2024-02-13T23:25:22.201Z,67.40
2024-02-13T23:27:24.091Z,67.40
2024-02-13T23:29:27.999Z,67.50
2024-02-13T23:31:29.917Z,67.50
2024-02-13T23:33:32.939Z,67.50
2024-02-13T23:35:35.109Z,67.50
2024-02-13T23:37:36.998Z,67.50
2024-02-13T23:39:38.720Z,67.60
2024-02-13T23:41:41.368Z,67.60
2024-02-13T23:43:43.194Z,67.40
2024-02-13T23:45:45.007Z,67.50
2024-02-13T23:47:48.032Z,67.50
2024-02-13T23:49:50.799Z,67.50
2024-02-13T23:51:52.922Z,67.40
2024-02-13T23:53:54.835Z,67.40
2024-02-13T23:55:56.764Z,68.30
2024-02-13T23:57:58.579Z,67.50
